sensor_id;sensor_type;location;lat;lon;timestamp;pressure;altitude;pressure_sealevel;temperature;humidity
40992;BME280;29633;49.168;9.848;2023-04-16T00:00:11;96658.84;;;13.04;65.25
40992;BME280;29633;49.168;9.848;2023-04-16T00:02:37;96663.22;;;13.03;65.09
40992;BME280;29633;49.168;9.848;2023-04-16T00:05:03;96657.34;;;13.01;65.22
40992;BME280;29633;49.168;9.848;2023-04-16T00:07:28;96655.81;;;12.99;65.40
40992;BME280;29633;49.168;9.848;2023-04-16T00:09:54;96657.34;;;13.01;65.22
40992;BME280;29633;49.168;9.848;2023-04-16T00:12:22;96655.56;;;13.02;65.18
40992;BME280;29633;49.168;9.848;2023-04-16T00:14:48;96656.34;;;13.02;65.21
40992;BME280;29633;49.168;9.848;2023-04-16T00:17:13;96655.94;;;13.07;65.39
40992;BME280;29633;49.168;9.848;2023-04-16T00:19:39;96657.72;;;13.06;65.37
40992;BME280;29633;49.168;9.848;2023-04-16T00:22:05;96658.69;;;13.05;65.34
40992;BME280;29633;49.168;9.848;2023-04-16T00:24:30;96655.94;;;13.07;65.43
40992;BME280;29633;49.168;9.848;2023-04-16T00:26:56;96661.97;;;13.07;65.26
40992;BME280;29633;49.168;9.848;2023-04-16T00:29:22;96663.09;;;13.05;65.36
40992;BME280;29633;49.168;9.848;2023-04-16T00:31:48;96658.16;;;13.02;65.45
40992;BME280;29633;49.168;9.848;2023-04-16T00:34:13;96655.81;;;12.99;65.57
40992;BME280;29633;49.168;9.848;2023-04-16T00:36:39;96660.06;;;13.00;65.41
40992;BME280;29633;49.168;9.848;2023-04-16T00:39:05;96656.50;;;13.01;65.29
40992;BME280;29633;49.168;9.848;2023-04-16T00:41:30;96660.47;;;13.05;65.31
40992;BME280;29633;49.168;9.848;2023-04-16T00:43:56;96651.56;;;13.07;65.34
40992;BME280;29633;49.168;9.848;2023-04-16T00:46:22;96650.75;;;13.07;65.36
40992;BME280;29633;49.168;9.848;2023-04-16T00:48:48;96662.78;;;13.08;65.34
40992;BME280;29633;49.168;9.848;2023-04-16T00:51:15;96661.84;;;13.09;65.55
40992;BME280;29633;49.168;9.848;2023-04-16T00:53:41;96661.59;;;13.12;65.74
40992;BME280;29633;49.168;9.848;2023-04-16T00:56:07;96665.84;;;13.13;65.43
40992;BME280;29633;49.168;9.848;2023-04-16T00:58:34;96657.03;;;13.14;65.19
40992;BME280;29633;49.168;9.848;2023-04-16T01:01:00;96656.22;;;13.13;65.46
40992;BME280;29633;49.168;9.848;2023-04-16T01:03:38;96656.50;;;13.10;65.51
40992;BME280;29633;49.168;9.848;2023-04-16T01:06:05;96655.41;;;13.03;65.87
40992;BME280;29633;49.168;9.848;2023-04-16T01:08:31;96652.97;;;13.02;65.68
40992;BME280;29633;49.168;9.848;2023-04-16T01:10:56;96653.09;;;13.00;65.78
40992;BME280;29633;49.168;9.848;2023-04-16T01:13:24;96653.09;;;13.00;65.61
40992;BME280;29633;49.168;9.848;2023-04-16T01:15:50;96659.78;;;13.03;65.58
40992;BME280;29633;49.168;9.848;2023-04-16T01:18:18;96658.16;;;13.02;65.61
40992;BME280;29633;49.168;9.848;2023-04-16T01:20:45;96656.81;;;12.98;65.61
40992;BME280;29633;49.168;9.848;2023-04-16T01:23:11;96661.03;;;12.99;65.59
40992;BME280;29633;49.168;9.848;2023-04-16T01:25:37;96659.41;;;12.98;65.69
40992;BME280;29633;49.168;9.848;2023-04-16T01:28:03;96659.41;;;12.98;65.59
40992;BME280;29633;49.168;9.848;2023-04-16T01:30:29;96662.66;;;13.00;65.82
40992;BME280;29633;49.168;9.848;2023-04-16T01:32:54;96664.31;;;13.01;65.80
40992;BME280;29633;49.168;9.848;2023-04-16T01:35:21;96671.31;;;13.00;65.68
40992;BME280;29633;49.168;9.848;2023-04-16T01:37:46;96667.34;;;12.96;65.75
40992;BME280;29633;49.168;9.848;2023-04-16T01:40:13;96665.84;;;12.94;65.88
40992;BME280;29633;49.168;9.848;2023-04-16T01:42:39;96666.97;;;12.91;65.94
40992;BME280;29633;49.168;9.848;2023-04-16T01:45:05;96669.28;;;12.94;65.91
40992;BME280;29633;49.168;9.848;2023-04-16T01:47:31;96664.91;;;12.95;66.00
40992;BME280;29633;49.168;9.848;2023-04-16T01:49:58;96664.72;;;12.96;65.75
40992;BME280;29633;49.168;9.848;2023-04-16T01:52:23;96663.91;;;12.96;65.87
40992;BME280;29633;49.168;9.848;2023-04-16T01:54:49;96669.13;;;12.96;65.84
40992;BME280;29633;49.168;9.848;2023-04-16T01:57:15;96663.38;;;12.92;65.99
40992;BME280;29633;49.168;9.848;2023-04-16T01:59:40;96668.56;;;12.92;65.79
40992;BME280;29633;49.168;9.848;2023-04-16T02:02:12;96665.69;;;12.95;66.05
40992;BME280;29633;49.168;9.848;2023-04-16T02:04:40;96663.91;;;12.96;65.98
40992;BME280;29633;49.168;9.848;2023-04-16T02:07:06;96663.91;;;12.96;65.80
40992;BME280;29633;49.168;9.848;2023-04-16T02:09:36;96667.63;;;12.93;66.14
40992;BME280;29633;49.168;9.848;2023-04-16T02:12:02;96668.03;;;12.89;66.08
40992;BME280;29633;49.168;9.848;2023-04-16T02:14:28;96674.06;;;12.89;66.07
40992;BME280;29633;49.168;9.848;2023-04-16T02:16:54;96665.16;;;12.92;66.08
40992;BME280;29633;49.168;9.848;2023-04-16T02:19:20;96668.44;;;12.94;66.14
40992;BME280;29633;49.168;9.848;2023-04-16T02:21:46;96662.97;;;12.97;65.86
40992;BME280;29633;49.168;9.848;2023-04-16T02:24:12;96667.22;;;12.98;65.95
40992;BME280;29633;49.168;9.848;2023-04-16T02:26:37;96667.34;;;12.96;65.88
40992;BME280;29633;49.168;9.848;2023-04-16T02:29:03;96669.28;;;12.94;65.97
40992;BME280;29633;49.168;9.848;2023-04-16T02:31:29;96669.81;;;12.98;66.00
40992;BME280;29633;49.168;9.848;2023-04-16T02:33:56;96672.41;;;12.98;66.09
40992;BME280;29633;49.168;9.848;2023-04-16T02:36:21;96671.72;;;12.96;66.15
40992;BME280;29633;49.168;9.848;2023-04-16T02:38:49;96679.53;;;12.96;65.96
40992;BME280;29633;49.168;9.848;2023-04-16T02:41:15;96667.50;;;12.95;66.06
40992;BME280;29633;49.168;9.848;2023-04-16T02:43:41;96673.50;;;12.95;66.06
40992;BME280;29633;49.168;9.848;2023-04-16T02:46:06;96679.41;;;12.97;66.12
40992;BME280;29633;49.168;9.848;2023-04-16T02:48:32;96684.59;;;12.97;66.01
40992;BME280;29633;49.168;9.848;2023-04-16T02:50:57;96683.09;;;12.95;66.12
40992;BME280;29633;49.168;9.848;2023-04-16T02:53:23;96683.09;;;12.95;66.25
40992;BME280;29633;49.168;9.848;2023-04-16T02:55:50;96688.31;;;12.95;66.26
40992;BME280;29633;49.168;9.848;2023-04-16T02:58:17;96686.66;;;12.94;66.19
40992;BME280;29633;49.168;9.848;2023-04-16T03:00:43;96685.72;;;12.95;66.12
40992;BME280;29633;49.168;9.848;2023-04-16T03:03:09;96677.91;;;12.95;66.18
40992;BME280;29633;49.168;9.848;2023-04-16T03:05:34;96685.72;;;12.95;66.10
40992;BME280;29633;49.168;9.848;2023-04-16T03:08:00;96681.16;;;12.97;66.08
40992;BME280;29633;49.168;9.848;2023-04-16T03:10:26;96684.44;;;12.99;66.10
40992;BME280;29633;49.168;9.848;2023-04-16T03:12:51;96686.09;;;13.00;66.22
40992;BME280;29633;49.168;9.848;2023-04-16T03:15:17;96685.97;;;13.01;66.28
40992;BME280;29633;49.168;9.848;2023-04-16T03:17:43;96686.09;;;13.00;66.22
40992;BME280;29633;49.168;9.848;2023-04-16T03:20:08;96685.13;;;13.01;66.19
40992;BME280;29633;49.168;9.848;2023-04-16T03:22:34;96690.63;;;12.98;66.38
40992;BME280;29633;49.168;9.848;2023-04-16T03:25:00;96688.84;;;12.98;66.39
40992;BME280;29633;49.168;9.848;2023-04-16T03:27:25;96682.81;;;12.98;66.30
40992;BME280;29633;49.168;9.848;2023-04-16T03:29:51;96695.84;;;12.98;66.39
40992;BME280;29633;49.168;9.848;2023-04-16T03:32:17;96690.91;;;12.95;66.34
40992;BME280;29633;49.168;9.848;2023-04-16T03:34:43;96695.69;;;12.99;66.21
40992;BME280;29633;49.168;9.848;2023-04-16T03:37:09;96699.09;;;13.00;66.27
40992;BME280;29633;49.168;9.848;2023-04-16T03:39:38;96698.44;;;12.98;66.46
40992;BME280;29633;49.168;9.848;2023-04-16T03:42:03;96709.66;;;12.98;66.47
40992;BME280;29633;49.168;9.848;2023-04-16T03:44:29;96707.59;;;13.02;66.41
40992;BME280;29633;49.168;9.848;2023-04-16T03:46:54;96705.97;;;13.01;66.52
40992;BME280;29633;49.168;9.848;2023-04-16T03:49:20;96708.84;;;12.98;66.64
40992;BME280;29633;49.168;9.848;2023-04-16T03:51:46;96714.03;;;12.98;66.67
40992;BME280;29633;49.168;9.848;2023-04-16T03:54:11;96708.56;;;13.01;66.34
40992;BME280;29633;49.168;9.848;2023-04-16T03:56:39;96715.66;;;12.99;66.48
40992;BME280;29633;49.168;9.848;2023-04-16T03:59:04;96714.03;;;12.98;66.60
40992;BME280;29633;49.168;9.848;2023-04-16T04:01:30;96715.66;;;12.99;66.46
40992;BME280;29633;49.168;9.848;2023-04-16T04:03:56;96721.69;;;12.99;66.51
40992;BME280;29633;49.168;9.848;2023-04-16T04:06:21;96719.78;;;13.01;66.66
40992;BME280;29633;49.168;9.848;2023-04-16T04:08:47;96723.06;;;13.03;66.33
40992;BME280;29633;49.168;9.848;2023-04-16T04:11:13;96720.34;;;13.05;66.43
40992;BME280;29633;49.168;9.848;2023-04-16T04:13:38;96721.28;;;13.04;66.45
40992;BME280;29633;49.168;9.848;2023-04-16T04:16:04;96726.50;;;13.04;66.62
40992;BME280;29633;49.168;9.848;2023-04-16T04:18:30;96732.66;;;13.03;66.67
40992;BME280;29633;49.168;9.848;2023-04-16T04:20:56;96725.53;;;13.05;66.58
40992;BME280;29633;49.168;9.848;2023-04-16T04:23:22;96721.69;;;13.09;66.62
40992;BME280;29633;49.168;9.848;2023-04-16T04:25:48;96733.19;;;13.06;66.51
40992;BME280;29633;49.168;9.848;2023-04-16T04:28:14;96733.19;;;13.06;66.45
40992;BME280;29633;49.168;9.848;2023-04-16T04:30:40;96736.78;;;13.05;66.76
40992;BME280;29633;49.168;9.848;2023-04-16T04:33:06;96736.63;;;13.07;66.69
40992;BME280;29633;49.168;9.848;2023-04-16T04:35:32;96736.50;;;13.08;66.60
40992;BME280;29633;49.168;9.848;2023-04-16T04:37:57;96741.44;;;13.11;66.78
40992;BME280;29633;49.168;9.848;2023-04-16T04:40:23;96742.94;;;13.14;66.49
40992;BME280;29633;49.168;9.848;2023-04-16T04:42:49;96741.44;;;13.11;66.64
40992;BME280;29633;49.168;9.848;2023-04-16T04:45:14;96746.53;;;13.13;66.67
40992;BME280;29633;49.168;9.848;2023-04-16T04:47:40;96753.34;;;13.14;66.55
40992;BME280;29633;49.168;9.848;2023-04-16T04:50:06;96747.72;;;13.18;66.70
40992;BME280;29633;49.168;9.848;2023-04-16T04:52:34;96759.25;;;13.16;66.71
40992;BME280;29633;49.168;9.848;2023-04-16T04:55:00;96756.50;;;13.17;66.60
40992;BME280;29633;49.168;9.848;2023-04-16T04:57:26;96756.38;;;13.19;66.73
40992;BME280;29633;49.168;9.848;2023-04-16T04:59:51;96758.56;;;13.14;66.67
40992;BME280;29633;49.168;9.848;2023-04-16T05:02:17;96758.56;;;13.14;66.65
40992;BME280;29633;49.168;9.848;2023-04-16T05:04:42;96758.44;;;13.15;66.84
40992;BME280;29633;49.168;9.848;2023-04-16T05:07:08;96764.47;;;13.16;66.84
40992;BME280;29633;49.168;9.848;2023-04-16T05:09:34;96764.47;;;13.16;66.80
40992;BME280;29633;49.168;9.848;2023-04-16T05:11:59;96770.34;;;13.18;66.78
40992;BME280;29633;49.168;9.848;2023-04-16T05:14:25;96777.47;;;13.16;66.79
40992;BME280;29633;49.168;9.848;2023-04-16T05:16:50;96778.44;;;13.15;66.73
40992;BME280;29633;49.168;9.848;2023-04-16T05:19:16;96775.94;;;13.13;66.74
40992;BME280;29633;49.168;9.848;2023-04-16T05:21:42;96777.59;;;13.14;66.94
40992;BME280;29633;49.168;9.848;2023-04-16T05:24:10;96778.56;;;13.13;66.78
40992;BME280;29633;49.168;9.848;2023-04-16T05:26:35;96774.31;;;13.12;66.79
40992;BME280;29633;49.168;9.848;2023-04-16T05:29:03;96789.94;;;13.12;66.75
40992;BME280;29633;49.168;9.848;2023-04-16T05:31:29;96787.47;;;13.11;66.96
40992;BME280;29633;49.168;9.848;2023-04-16T05:33:54;96789.13;;;13.12;66.90
40992;BME280;29633;49.168;9.848;2023-04-16T05:36:20;96796.09;;;13.11;66.95
40992;BME280;29633;49.168;9.848;2023-04-16T05:38:45;96797.88;;;13.11;66.91
40992;BME280;29633;49.168;9.848;2023-04-16T05:41:11;96798.69;;;13.11;66.72
40992;BME280;29633;49.168;9.848;2023-04-16T05:43:37;96794.56;;;13.09;66.82
40992;BME280;29633;49.168;9.848;2023-04-16T05:46:02;96795.28;;;13.11;66.85
40992;BME280;29633;49.168;9.848;2023-04-16T05:48:28;96799.53;;;13.12;66.89
40992;BME280;29633;49.168;9.848;2023-04-16T05:50:54;96805.41;;;13.14;66.78
40992;BME280;29633;49.168;9.848;2023-04-16T05:53:19;96807.88;;;13.15;66.79
40992;BME280;29633;49.168;9.848;2023-04-16T05:55:45;96815.53;;;13.17;66.78
40992;BME280;29633;49.168;9.848;2023-04-16T05:58:11;96808.56;;;13.17;66.82
40992;BME280;29633;49.168;9.848;2023-04-16T06:00:37;96815.53;;;13.17;66.84
40992;BME280;29633;49.168;9.848;2023-04-16T06:03:02;96820.06;;;13.15;66.89
40992;BME280;29633;49.168;9.848;2023-04-16T06:05:28;96818.41;;;13.14;66.91
40992;BME280;29633;49.168;9.848;2023-04-16T06:07:54;96821.19;;;13.12;66.83
40992;BME280;29633;49.168;9.848;2023-04-16T06:10:20;96822.13;;;13.11;66.90
40992;BME280;29633;49.168;9.848;2023-04-16T06:12:46;96821.19;;;13.12;66.97
40992;BME280;29633;49.168;9.848;2023-04-16T06:15:11;96821.31;;;13.11;66.95
40992;BME280;29633;49.168;9.848;2023-04-16T06:17:37;96819.78;;;13.08;67.20
40992;BME280;29633;49.168;9.848;2023-04-16T06:20:03;96830.31;;;13.07;67.22
40992;BME280;29633;49.168;9.848;2023-04-16T06:22:29;96819.22;;;13.05;67.16
40992;BME280;29633;49.168;9.848;2023-04-16T06:24:55;96818.00;;;13.09;67.06
40992;BME280;29633;49.168;9.848;2023-04-16T06:27:20;96821.31;;;13.11;67.07
40992;BME280;29633;49.168;9.848;2023-04-16T06:29:46;96825.56;;;13.12;67.10
40992;BME280;29633;49.168;9.848;2023-04-16T06:32:11;96825.28;;;13.15;67.07
40992;BME280;29633;49.168;9.848;2023-04-16T06:34:37;96830.47;;;13.15;67.02
40992;BME280;29633;49.168;9.848;2023-04-16T06:37:03;96830.75;;;13.12;67.27
40992;BME280;29633;49.168;9.848;2023-04-16T06:39:29;96830.19;;;13.08;67.27
40992;BME280;29633;49.168;9.848;2023-04-16T06:41:55;96832.66;;;13.10;67.12
40992;BME280;29633;49.168;9.848;2023-04-16T06:44:21;96834.69;;;13.06;67.37
40992;BME280;29633;49.168;9.848;2023-04-16T06:46:47;96826.75;;;13.08;67.30
40992;BME280;29633;49.168;9.848;2023-04-16T06:49:12;96833.38;;;13.12;67.34
40992;BME280;29633;49.168;9.848;2023-04-16T06:51:38;96839.53;;;13.11;67.35
40992;BME280;29633;49.168;9.848;2023-04-16T06:54:04;96835.81;;;13.13;67.21
40992;BME280;29633;49.168;9.848;2023-04-16T06:56:29;96838.84;;;13.18;67.16
40992;BME280;29633;49.168;9.848;2023-04-16T06:58:56;96842.94;;;13.21;67.25
40992;BME280;29633;49.168;9.848;2023-04-16T07:01:23;96842.81;;;13.22;67.27
40992;BME280;29633;49.168;9.848;2023-04-16T07:03:51;96839.38;;;13.22;67.03
40992;BME280;29633;49.168;9.848;2023-04-16T07:06:16;96852.53;;;13.20;67.30
40992;BME280;29633;49.168;9.848;2023-04-16T07:08:42;96853.22;;;13.22;67.28
40992;BME280;29633;49.168;9.848;2023-04-16T07:11:08;96852.13;;;13.25;67.25
40992;BME280;29633;49.168;9.848;2023-04-16T07:13:33;96847.31;;;13.20;67.34
40992;BME280;29633;49.168;9.848;2023-04-16T07:15:59;96845.81;;;13.18;67.44
40992;BME280;29633;49.168;9.848;2023-04-16T07:18:24;96849.38;;;13.17;67.44
40992;BME280;29633;49.168;9.848;2023-04-16T07:20:50;96851.03;;;13.18;67.48
40992;BME280;29633;49.168;9.848;2023-04-16T07:23:16;96847.75;;;13.16;67.36
40992;BME280;29633;49.168;9.848;2023-04-16T07:25:41;96851.19;;;13.16;67.28
40992;BME280;29633;49.168;9.848;2023-04-16T07:28:07;96848.41;;;13.18;67.56
40992;BME280;29633;49.168;9.848;2023-04-16T07:30:33;96854.44;;;13.18;67.44
40992;BME280;29633;49.168;9.848;2023-04-16T07:33:00;96854.56;;;13.17;67.38
40992;BME280;29633;49.168;9.848;2023-04-16T07:35:26;96852.69;;;13.19;67.35
40992;BME280;29633;49.168;9.848;2023-04-16T07:37:52;96856.94;;;13.20;67.35
40992;BME280;29633;49.168;9.848;2023-04-16T07:40:17;96865.69;;;13.19;67.42
40992;BME280;29633;49.168;9.848;2023-04-16T07:42:43;96864.75;;;13.20;67.55
40992;BME280;29633;49.168;9.848;2023-04-16T07:45:09;96864.59;;;13.21;67.53
40992;BME280;29633;49.168;9.848;2023-04-16T07:47:34;96860.09;;;13.23;67.55
40992;BME280;29633;49.168;9.848;2023-04-16T07:50:00;96868.56;;;13.25;67.61
40992;BME280;29633;49.168;9.848;2023-04-16T07:52:26;96872.00;;;13.26;67.60
40992;BME280;29633;49.168;9.848;2023-04-16T07:54:51;96877.63;;;13.31;67.57
40992;BME280;29633;49.168;9.848;2023-04-16T07:57:17;96871.03;;;13.37;67.39
40992;BME280;29633;49.168;9.848;2023-04-16T07:59:42;96872.41;;;13.41;67.38
40992;BME280;29633;49.168;9.848;2023-04-16T08:02:10;96873.63;;;13.46;67.36
40992;BME280;29633;49.168;9.848;2023-04-16T08:04:40;96881.44;;;13.46;67.54
40992;BME280;29633;49.168;9.848;2023-04-16T08:07:06;96884.72;;;13.48;67.36
40992;BME280;29633;49.168;9.848;2023-04-16T08:09:31;96882.25;;;13.47;67.49
40992;BME280;29633;49.168;9.848;2023-04-16T08:11:59;96887.88;;;13.42;67.56
40992;BME280;29633;49.168;9.848;2023-04-16T08:14:25;96885.69;;;13.38;67.58
40992;BME280;29633;49.168;9.848;2023-04-16T08:16:51;96891.03;;;13.36;67.47
40992;BME280;29633;49.168;9.848;2023-04-16T08:19:16;96888.59;;;13.35;67.78
40992;BME280;29633;49.168;9.848;2023-04-16T08:21:42;96890.22;;;13.36;67.72
40992;BME280;29633;49.168;9.848;2023-04-16T08:24:08;96897.91;;;13.37;67.78
40992;BME280;29633;49.168;9.848;2023-04-16T08:26:34;96892.69;;;13.37;67.79
40992;BME280;29633;49.168;9.848;2023-04-16T08:28:59;96897.63;;;13.40;67.71
40992;BME280;29633;49.168;9.848;2023-04-16T08:31:25;96905.16;;;13.43;67.71
40992;BME280;29633;49.168;9.848;2023-04-16T08:33:51;96910.22;;;13.45;67.74
40992;BME280;29633;49.168;9.848;2023-04-16T08:36:16;96911.31;;;13.42;67.89
40992;BME280;29633;49.168;9.848;2023-04-16T08:38:42;96914.88;;;13.41;67.69
40992;BME280;29633;49.168;9.848;2023-04-16T08:41:09;96921.72;;;13.42;67.68
40992;BME280;29633;49.168;9.848;2023-04-16T08:43:37;96919.13;;;13.42;67.81
40992;BME280;29633;49.168;9.848;2023-04-16T08:46:06;96924.19;;;13.44;67.93
40992;BME280;29633;49.168;9.848;2023-04-16T08:48:33;96921.31;;;13.47;67.62
40992;BME280;29633;49.168;9.848;2023-04-16T08:51:00;96922.81;;;13.49;67.76
40992;BME280;29633;49.168;9.848;2023-04-16T08:53:35;96921.03;;;13.50;67.76
40992;BME280;29633;49.168;9.848;2023-04-16T08:56:06;96924.34;;;13.52;67.61
40992;BME280;29633;49.168;9.848;2023-04-16T08:58:34;96928.72;;;13.51;67.82
40992;BME280;29633;49.168;9.848;2023-04-16T09:01:04;96933.94;;;13.51;67.64
40992;BME280;29633;49.168;9.848;2023-04-16T09:03:31;96935.31;;;13.55;67.68
40992;BME280;29633;49.168;9.848;2023-04-16T09:05:57;96934.09;;;13.59;67.64
40992;BME280;29633;49.168;9.848;2023-04-16T09:08:24;96934.09;;;13.59;67.61
40992;BME280;29633;49.168;9.848;2023-04-16T09:10:50;96938.47;;;13.59;67.76
40992;BME280;29633;49.168;9.848;2023-04-16T09:13:16;96933.25;;;13.59;67.87
40992;BME280;29633;49.168;9.848;2023-04-16T09:15:44;96947.22;;;13.58;67.70
40992;BME280;29633;49.168;9.848;2023-04-16T09:18:10;96946.13;;;13.60;67.90
40992;BME280;29633;49.168;9.848;2023-04-16T09:20:37;96949.72;;;13.59;67.82
40992;BME280;29633;49.168;9.848;2023-04-16T09:23:05;96953.69;;;13.63;67.88
40992;BME280;29633;49.168;9.848;2023-04-16T09:25:34;96941.63;;;13.62;67.79
40992;BME280;29633;49.168;9.848;2023-04-16T09:28:00;96955.88;;;13.58;67.98
40992;BME280;29633;49.168;9.848;2023-04-16T09:30:26;96954.91;;;13.59;67.88
40992;BME280;29633;49.168;9.848;2023-04-16T09:33:19;96958.91;;;13.63;67.90
40992;BME280;29633;49.168;9.848;2023-04-16T09:35:49;96960.25;;;13.67;67.76
40992;BME280;29633;49.168;9.848;2023-04-16T09:38:15;96964.38;;;13.70;67.97
40992;BME280;29633;49.168;9.848;2023-04-16T09:40:41;96966.81;;;13.71;67.96
40992;BME280;29633;49.168;9.848;2023-04-16T09:43:15;96961.50;;;13.73;67.73
40992;BME280;29633;49.168;9.848;2023-04-16T09:46:07;96963.69;;;13.77;67.80
40992;BME280;29633;49.168;9.848;2023-04-16T09:48:35;96966.13;;;13.79;67.76
40992;BME280;29633;49.168;9.848;2023-04-16T09:51:01;96969.44;;;13.81;67.93
40992;BME280;29633;49.168;9.848;2023-04-16T09:53:28;96965.72;;;13.84;67.73
40992;BME280;29633;49.168;9.848;2023-04-16T09:55:58;96980.69;;;13.82;68.00
40992;BME280;29633;49.168;9.848;2023-04-16T09:58:24;96977.09;;;13.82;67.91
40992;BME280;29633;49.168;9.848;2023-04-16T10:01:09;96984.09;;;13.82;67.85
40992;BME280;29633;49.168;9.848;2023-04-16T10:03:36;96981.66;;;13.80;68.07
40992;BME280;29633;49.168;9.848;2023-04-16T10:06:07;96989.06;;;13.85;67.90
40992;BME280;29633;49.168;9.848;2023-04-16T10:08:32;96981.25;;;13.85;67.79
40992;BME280;29633;49.168;9.848;2023-04-16T10:11:00;96987.81;;;13.79;68.04
40992;BME280;29633;49.168;9.848;2023-04-16T10:13:26;96984.53;;;13.77;67.96
40992;BME280;29633;49.168;9.848;2023-04-16T10:15:54;96994.13;;;13.77;68.05
40992;BME280;29633;49.168;9.848;2023-04-16T10:18:20;96991.66;;;13.75;68.16
40992;BME280;29633;49.168;9.848;2023-04-16T10:20:46;96996.19;;;13.73;68.04
40992;BME280;29633;49.168;9.848;2023-04-16T10:23:15;96987.81;;;13.70;68.20
40992;BME280;29633;49.168;9.848;2023-04-16T10:25:41;96995.09;;;13.66;68.14
40992;BME280;29633;49.168;9.848;2023-04-16T10:28:08;97001.13;;;13.67;68.11
40992;BME280;29633;49.168;9.848;2023-04-16T10:30:35;96999.31;;;13.67;68.27
40992;BME280;29633;49.168;9.848;2023-04-16T10:33:02;96995.75;;;13.68;68.21
40992;BME280;29633;49.168;9.848;2023-04-16T10:35:29;96996.72;;;13.67;68.16
40992;BME280;29633;49.168;9.848;2023-04-16T10:37:56;97000.44;;;13.65;68.23
40992;BME280;29633;49.168;9.848;2023-04-16T10:40:23;97002.47;;;13.61;68.36
40992;BME280;29633;49.168;9.848;2023-04-16T10:42:57;97002.47;;;13.61;68.24
40992;BME280;29633;49.168;9.848;2023-04-16T10:45:36;97001.81;;;13.59;68.14
40992;BME280;29633;49.168;9.848;2023-04-16T10:48:06;97005.09;;;13.61;68.34
40992;BME280;29633;49.168;9.848;2023-04-16T10:50:37;97005.34;;;13.68;68.18
40992;BME280;29633;49.168;9.848;2023-04-16T10:53:17;97007.69;;;13.71;68.06
40992;BME280;29633;49.168;9.848;2023-04-16T10:56:09;97006.34;;;13.76;68.09
40992;BME280;29633;49.168;9.848;2023-04-16T10:58:35;97007.97;;;13.77;68.15
40992;BME280;29633;49.168;9.848;2023-04-16T11:01:06;97003.72;;;13.76;68.00
40992;BME280;29633;49.168;9.848;2023-04-16T11:03:32;97004.41;;;13.78;68.13
40992;BME280;29633;49.168;9.848;2023-04-16T11:08:38;97009.34;;;13.82;68.10
40992;BME280;29633;49.168;9.848;2023-04-16T11:11:05;97010.16;;;13.82;68.17
40992;BME280;29633;49.168;9.848;2023-04-16T11:13:31;97004.16;;;13.82;68.19
40992;BME280;29633;49.168;9.848;2023-04-16T11:15:57;97002.50;;;13.80;68.16
40992;BME280;29633;49.168;9.848;2023-04-16T11:18:23;97000.44;;;13.84;68.26
40992;BME280;29633;49.168;9.848;2023-04-16T11:20:50;97015.91;;;13.86;68.14
40992;BME280;29633;49.168;9.848;2023-04-16T11:23:15;97009.75;;;13.87;68.27
40992;BME280;29633;49.168;9.848;2023-04-16T11:25:41;97016.63;;;13.88;68.29
40992;BME280;29633;49.168;9.848;2023-04-16T11:28:07;97012.06;;;13.90;68.17
40992;BME280;29633;49.168;9.848;2023-04-16T11:30:34;97010.03;;;13.93;68.25
40992;BME280;29633;49.168;9.848;2023-04-16T11:33:07;97015.94;;;13.95;68.01
40992;BME280;29633;49.168;9.848;2023-04-16T11:35:33;97024.31;;;13.99;68.12
40992;BME280;29633;49.168;9.848;2023-04-16T11:37:58;97023.06;;;14.03;68.13
40992;BME280;29633;49.168;9.848;2023-04-16T11:40:24;97013.47;;;14.03;68.25
40992;BME280;29633;49.168;9.848;2023-04-16T11:42:53;97015.63;;;14.08;68.10
40992;BME280;29633;49.168;9.848;2023-04-16T11:45:19;97015.78;;;14.06;68.30
40992;BME280;29633;49.168;9.848;2023-04-16T11:47:49;97021.97;;;14.05;68.28
40992;BME280;29633;49.168;9.848;2023-04-16T11:50:25;97021.84;;;14.07;68.34
40992;BME280;29633;49.168;9.848;2023-04-16T11:52:53;97014.56;;;14.10;68.17
40992;BME280;29633;49.168;9.848;2023-04-16T11:55:19;97018.66;;;14.13;68.16
40992;BME280;29633;49.168;9.848;2023-04-16T11:57:45;97023.59;;;14.16;68.25
40992;BME280;29633;49.168;9.848;2023-04-16T12:00:11;97018.25;;;14.17;68.00
40992;BME280;29633;49.168;9.848;2023-04-16T12:02:39;97017.97;;;14.20;68.08
40992;BME280;29633;49.168;9.848;2023-04-16T12:05:07;97018.91;;;14.19;68.19
40992;BME280;29633;49.168;9.848;2023-04-16T12:07:51;97021.41;;;14.21;68.26
40992;BME280;29633;49.168;9.848;2023-04-16T12:10:16;97022.22;;;14.21;68.42
40992;BME280;29633;49.168;9.848;2023-04-16T12:12:42;97017.13;;;14.20;68.30
40992;BME280;29633;49.168;9.848;2023-04-16T12:15:08;97022.34;;;14.20;68.44
40992;BME280;29633;49.168;9.848;2023-04-16T12:17:34;97019.63;;;14.21;68.47
40992;BME280;29633;49.168;9.848;2023-04-16T12:20:02;97027.16;;;14.24;68.39
40992;BME280;29633;49.168;9.848;2023-04-16T12:22:32;97024.56;;;14.24;68.31
40992;BME280;29633;49.168;9.848;2023-04-16T12:25:13;97025.22;;;14.26;68.41
40992;BME280;29633;49.168;9.848;2023-04-16T12:27:50;97024.41;;;14.26;68.41
40992;BME280;29633;49.168;9.848;2023-04-16T12:30:17;97033.03;;;14.26;68.45
40992;BME280;29633;49.168;9.848;2023-04-16T12:32:45;97027.69;;;14.28;68.52
40992;BME280;29633;49.168;9.848;2023-04-16T12:35:11;97031.13;;;14.28;68.51
40992;BME280;29633;49.168;9.848;2023-04-16T12:37:37;97036.34;;;14.28;68.46
40992;BME280;29633;49.168;9.848;2023-04-16T12:40:04;97039.63;;;14.30;68.41
40992;BME280;29633;49.168;9.848;2023-04-16T12:42:32;97034.28;;;14.32;68.66
40992;BME280;29633;49.168;9.848;2023-04-16T12:45:02;97029.78;;;14.34;68.30
40992;BME280;29633;49.168;9.848;2023-04-16T12:47:28;97031.44;;;14.35;68.55
40992;BME280;29633;49.168;9.848;2023-04-16T12:49:55;97028.00;;;14.35;68.56
40992;BME280;29633;49.168;9.848;2023-04-16T12:52:22;97032.09;;;14.37;68.51
40992;BME280;29633;49.168;9.848;2023-04-16T12:54:47;97031.13;;;14.38;68.52
40992;BME280;29633;49.168;9.848;2023-04-16T12:57:13;97036.91;;;14.42;68.57
40992;BME280;29633;49.168;9.848;2023-04-16T12:59:39;97030.56;;;14.44;68.64